sensor_id;sensor_type;location;lat;lon;timestamp;P1;durP1;ratioP1;P2;durP2;ratioP2
3447;SDS011;1738;49.500;17.736;2023-02-21T00:02:27;8.93;;;2.80;;
3447;SDS011;1738;49.500;17.736;2023-02-21T00:04:58;5.93;;;2.63;;
3447;SDS011;1738;49.500;17.736;2023-02-21T00:07:31;6.00;;;3.05;;
3447;SDS011;1738;49.500;17.736;2023-02-21T00:10:02;4.23;;;2.60;;
3447;SDS011;1738;49.500;17.736;2023-02-21T00:12:33;7.57;;;2.63;;
3447;SDS011;1738;49.500;17.736;2023-02-21T00:15:05;3.75;;;2.50;;
3447;SDS011;1738;49.500;17.736;2023-02-21T00:17:37;3.83;;;2.43;;
3447;SDS011;1738;49.500;17.736;2023-02-21T00:20:08;6.43;;;3.07;;
3447;SDS011;1738;49.500;17.736;2023-02-21T00:22:40;7.07;;;3.80;;
3447;SDS011;1738;49.500;17.736;2023-02-21T00:25:11;5.28;;;3.40;;
3447;SDS011;1738;49.500;17.736;2023-02-21T00:27:43;5.68;;;3.83;;
3447;SDS011;1738;49.500;17.736;2023-02-21T00:30:14;8.20;;;2.80;;
3447;SDS011;1738;49.500;17.736;2023-02-21T00:32:46;4.07;;;3.03;;
3447;SDS011;1738;49.500;17.736;2023-02-21T00:35:18;4.90;;;2.83;;
3447;SDS011;1738;49.500;17.736;2023-02-21T00:37:50;6.20;;;3.40;;
3447;SDS011;1738;49.500;17.736;2023-02-21T00:40:21;6.80;;;2.87;;
3447;SDS011;1738;49.500;17.736;2023-02-21T00:42:53;4.83;;;3.60;;
3447;SDS011;1738;49.500;17.736;2023-02-21T00:45:24;5.77;;;3.13;;
3447;SDS011;1738;49.500;17.736;2023-02-21T00:47:56;4.93;;;3.13;;
3447;SDS011;1738;49.500;17.736;2023-02-21T00:50:28;5.03;;;3.30;;
3447;SDS011;1738;49.500;17.736;2023-02-21T00:52:59;4.77;;;2.93;;
3447;SDS011;1738;49.500;17.736;2023-02-21T00:55:31;5.73;;;3.03;;
3447;SDS011;1738;49.500;17.736;2023-02-21T00:58:03;10.02;;;3.95;;
3447;SDS011;1738;49.500;17.736;2023-02-21T01:00:34;7.07;;;3.63;;
3447;SDS011;1738;49.500;17.736;2023-02-21T01:03:06;3.87;;;2.50;;
3447;SDS011;1738;49.500;17.736;2023-02-21T01:05:38;4.30;;;3.40;;
3447;SDS011;1738;49.500;17.736;2023-02-21T01:08:09;6.47;;;4.50;;
3447;SDS011;1738;49.500;17.736;2023-02-21T01:10:41;5.47;;;3.43;;
3447;SDS011;1738;49.500;17.736;2023-02-21T01:13:13;6.77;;;4.00;;
3447;SDS011;1738;49.500;17.736;2023-02-21T01:15:44;5.67;;;3.37;;
3447;SDS011;1738;49.500;17.736;2023-02-21T01:18:16;8.47;;;4.27;;
3447;SDS011;1738;49.500;17.736;2023-02-21T01:20:48;8.43;;;3.60;;
3447;SDS011;1738;49.500;17.736;2023-02-21T01:23:19;6.13;;;3.00;;
3447;SDS011;1738;49.500;17.736;2023-02-21T01:25:51;10.03;;;5.27;;
3447;SDS011;1738;49.500;17.736;2023-02-21T01:28:23;6.17;;;3.33;;
3447;SDS011;1738;49.500;17.736;2023-02-21T01:30:55;4.73;;;3.57;;
3447;SDS011;1738;49.500;17.736;2023-02-21T01:33:26;5.30;;;2.90;;
3447;SDS011;1738;49.500;17.736;2023-02-21T01:35:58;6.60;;;3.47;;
3447;SDS011;1738;49.500;17.736;2023-02-21T01:38:32;6.13;;;2.90;;
3447;SDS011;1738;49.500;17.736;2023-02-21T01:41:01;4.57;;;2.60;;
3447;SDS011;1738;49.500;17.736;2023-02-21T01:43:33;4.18;;;2.53;;
3447;SDS011;1738;49.500;17.736;2023-02-21T01:46:05;9.60;;;3.10;;
3447;SDS011;1738;49.500;17.736;2023-02-21T01:48:36;5.20;;;2.60;;
3447;SDS011;1738;49.500;17.736;2023-02-21T01:51:09;4.75;;;2.62;;
3447;SDS011;1738;49.500;17.736;2023-02-21T01:53:40;5.63;;;3.00;;
3447;SDS011;1738;49.500;17.736;2023-02-21T01:56:11;4.00;;;2.27;;
3447;SDS011;1738;49.500;17.736;2023-02-21T01:58:43;5.20;;;2.07;;
3447;SDS011;1738;49.500;17.736;2023-02-21T02:01:22;6.13;;;3.27;;
3447;SDS011;1738;49.500;17.736;2023-02-21T02:03:50;4.10;;;2.60;;
3447;SDS011;1738;49.500;17.736;2023-02-21T02:06:21;6.97;;;2.60;;
3447;SDS011;1738;49.500;17.736;2023-02-21T02:08:53;6.60;;;3.30;;
3447;SDS011;1738;49.500;17.736;2023-02-21T02:11:31;4.70;;;2.57;;
3447;SDS011;1738;49.500;17.736;2023-02-21T02:14:03;4.30;;;2.40;;
3447;SDS011;1738;49.500;17.736;2023-02-21T02:16:45;6.07;;;2.90;;
3447;SDS011;1738;49.500;17.736;2023-02-21T02:21:54;4.00;;;2.63;;
3447;SDS011;1738;49.500;17.736;2023-02-21T02:24:23;6.57;;;3.10;;
3447;SDS011;1738;49.500;17.736;2023-02-21T02:26:57;4.90;;;2.10;;
3447;SDS011;1738;49.500;17.736;2023-02-21T02:31:52;5.23;;;3.37;;
3447;SDS011;1738;49.500;17.736;2023-02-21T02:36:52;5.77;;;3.13;;
3447;SDS011;1738;49.500;17.736;2023-02-21T02:39:55;13.30;;;2.93;;
3447;SDS011;1738;49.500;17.736;2023-02-21T02:44:36;6.80;;;2.87;;
3447;SDS011;1738;49.500;17.736;2023-02-21T02:47:00;4.17;;;2.37;;
3447;SDS011;1738;49.500;17.736;2023-02-21T02:49:27;5.03;;;2.83;;
3447;SDS011;1738;49.500;17.736;2023-02-21T02:51:51;4.57;;;3.33;;
3447;SDS011;1738;49.500;17.736;2023-02-21T02:54:17;5.73;;;3.43;;
3447;SDS011;1738;49.500;17.736;2023-02-21T02:56:43;4.55;;;2.70;;
3447;SDS011;1738;49.500;17.736;2023-02-21T02:59:10;7.37;;;3.20;;
3447;SDS011;1738;49.500;17.736;2023-02-21T03:01:43;8.67;;;3.47;;
3447;SDS011;1738;49.500;17.736;2023-02-21T03:04:09;5.40;;;3.10;;
3447;SDS011;1738;49.500;17.736;2023-02-21T03:09:12;8.73;;;3.47;;
3447;SDS011;1738;49.500;17.736;2023-02-21T03:11:39;4.87;;;3.60;;
3447;SDS011;1738;49.500;17.736;2023-02-21T03:14:19;6.40;;;2.80;;
3447;SDS011;1738;49.500;17.736;2023-02-21T03:16:47;7.50;;;3.47;;
3447;SDS011;1738;49.500;17.736;2023-02-21T03:19:13;5.73;;;3.13;;
3447;SDS011;1738;49.500;17.736;2023-02-21T03:21:40;10.53;;;3.30;;
3447;SDS011;1738;49.500;17.736;2023-02-21T03:24:04;4.53;;;2.43;;
3447;SDS011;1738;49.500;17.736;2023-02-21T03:26:31;6.80;;;2.77;;
3447;SDS011;1738;49.500;17.736;2023-02-21T03:28:56;3.77;;;2.40;;
3447;SDS011;1738;49.500;17.736;2023-02-21T03:31:23;9.07;;;2.83;;
3447;SDS011;1738;49.500;17.736;2023-02-21T03:33:47;4.80;;;2.87;;
3447;SDS011;1738;49.500;17.736;2023-02-21T03:36:13;4.27;;;2.03;;
3447;SDS011;1738;49.500;17.736;2023-02-21T03:38:39;7.00;;;2.70;;
3447;SDS011;1738;49.500;17.736;2023-02-21T03:41:05;6.90;;;2.97;;
3447;SDS011;1738;49.500;17.736;2023-02-21T03:43:31;4.97;;;2.63;;
3447;SDS011;1738;49.500;17.736;2023-02-21T03:45:56;3.03;;;1.87;;
3447;SDS011;1738;49.500;17.736;2023-02-21T03:48:22;2.70;;;2.10;;
3447;SDS011;1738;49.500;17.736;2023-02-21T03:50:48;5.27;;;2.50;;
3447;SDS011;1738;49.500;17.736;2023-02-21T03:53:14;5.43;;;2.67;;
3447;SDS011;1738;49.500;17.736;2023-02-21T03:55:40;3.70;;;2.30;;
3447;SDS011;1738;49.500;17.736;2023-02-21T03:58:06;3.60;;;2.47;;
3447;SDS011;1738;49.500;17.736;2023-02-21T04:00:31;9.60;;;3.20;;
3447;SDS011;1738;49.500;17.736;2023-02-21T04:02:57;5.47;;;3.00;;
3447;SDS011;1738;49.500;17.736;2023-02-21T04:05:23;7.93;;;3.47;;
3447;SDS011;1738;49.500;17.736;2023-02-21T04:07:49;6.05;;;2.80;;
3447;SDS011;1738;49.500;17.736;2023-02-21T04:10:15;6.63;;;2.67;;
3447;SDS011;1738;49.500;17.736;2023-02-21T04:12:41;3.80;;;2.63;;
3447;SDS011;1738;49.500;17.736;2023-02-21T04:15:07;6.90;;;2.72;;
3447;SDS011;1738;49.500;17.736;2023-02-21T04:17:33;6.30;;;3.40;;
3447;SDS011;1738;49.500;17.736;2023-02-21T04:19:59;4.77;;;2.77;;
3447;SDS011;1738;49.500;17.736;2023-02-21T04:22:24;5.83;;;3.50;;
3447;SDS011;1738;49.500;17.736;2023-02-21T04:24:50;4.13;;;2.80;;
3447;SDS011;1738;49.500;17.736;2023-02-21T04:27:16;5.90;;;3.33;;
3447;SDS011;1738;49.500;17.736;2023-02-21T04:29:42;5.83;;;2.93;;
3447;SDS011;1738;49.500;17.736;2023-02-21T04:32:08;6.57;;;3.40;;
3447;SDS011;1738;49.500;17.736;2023-02-21T04:34:34;5.20;;;3.00;;
3447;SDS011;1738;49.500;17.736;2023-02-21T04:36:59;4.60;;;2.63;;
3447;SDS011;1738;49.500;17.736;2023-02-21T04:39:25;6.73;;;3.73;;
3447;SDS011;1738;49.500;17.736;2023-02-21T04:41:51;5.03;;;3.13;;
3447;SDS011;1738;49.500;17.736;2023-02-21T04:44:17;6.70;;;3.13;;
3447;SDS011;1738;49.500;17.736;2023-02-21T04:46:43;7.67;;;2.80;;
3447;SDS011;1738;49.500;17.736;2023-02-21T04:49:09;5.70;;;3.70;;
3447;SDS011;1738;49.500;17.736;2023-02-21T04:51:35;5.57;;;3.93;;
3447;SDS011;1738;49.500;17.736;2023-02-21T04:54:00;5.37;;;3.00;;
3447;SDS011;1738;49.500;17.736;2023-02-21T04:56:26;7.10;;;2.73;;
3447;SDS011;1738;49.500;17.736;2023-02-21T04:58:52;5.67;;;3.10;;
3447;SDS011;1738;49.500;17.736;2023-02-21T05:01:18;6.63;;;3.03;;
3447;SDS011;1738;49.500;17.736;2023-02-21T05:03:44;8.73;;;3.23;;
3447;SDS011;1738;49.500;17.736;2023-02-21T05:06:10;5.60;;;3.17;;
3447;SDS011;1738;49.500;17.736;2023-02-21T05:08:35;9.63;;;3.23;;
3447;SDS011;1738;49.500;17.736;2023-02-21T05:11:01;6.70;;;2.73;;
3447;SDS011;1738;49.500;17.736;2023-02-21T05:13:27;5.40;;;2.87;;
3447;SDS011;1738;49.500;17.736;2023-02-21T05:15:53;5.23;;;3.27;;
3447;SDS011;1738;49.500;17.736;2023-02-21T05:18:19;8.30;;;4.80;;
3447;SDS011;1738;49.500;17.736;2023-02-21T05:20:45;6.18;;;3.10;;
3447;SDS011;1738;49.500;17.736;2023-02-21T05:23:10;5.23;;;3.27;;
3447;SDS011;1738;49.500;17.736;2023-02-21T05:25:36;4.97;;;2.87;;
3447;SDS011;1738;49.500;17.736;2023-02-21T05:28:02;5.33;;;3.00;;
3447;SDS011;1738;49.500;17.736;2023-02-21T05:30:28;7.80;;;3.53;;
3447;SDS011;1738;49.500;17.736;2023-02-21T05:32:54;7.68;;;3.40;;
3447;SDS011;1738;49.500;17.736;2023-02-21T05:35:20;4.00;;;2.70;;
3447;SDS011;1738;49.500;17.736;2023-02-21T05:37:45;7.03;;;3.73;;
3447;SDS011;1738;49.500;17.736;2023-02-21T05:40:11;6.97;;;3.73;;
3447;SDS011;1738;49.500;17.736;2023-02-21T05:42:37;6.67;;;3.67;;
3447;SDS011;1738;49.500;17.736;2023-02-21T05:45:03;8.07;;;3.53;;
3447;SDS011;1738;49.500;17.736;2023-02-21T05:47:29;6.70;;;3.37;;
3447;SDS011;1738;49.500;17.736;2023-02-21T05:49:55;7.00;;;4.10;;
3447;SDS011;1738;49.500;17.736;2023-02-21T05:52:21;6.37;;;3.35;;
3447;SDS011;1738;49.500;17.736;2023-02-21T05:54:46;8.63;;;3.40;;
3447;SDS011;1738;49.500;17.736;2023-02-21T05:57:12;6.30;;;3.07;;
3447;SDS011;1738;49.500;17.736;2023-02-21T05:59:38;5.80;;;3.60;;
3447;SDS011;1738;49.500;17.736;2023-02-21T06:02:04;5.93;;;3.30;;
3447;SDS011;1738;49.500;17.736;2023-02-21T06:04:30;5.65;;;3.20;;
3447;SDS011;1738;49.500;17.736;2023-02-21T06:06:56;6.43;;;3.50;;
3447;SDS011;1738;49.500;17.736;2023-02-21T06:09:21;6.43;;;4.13;;
3447;SDS011;1738;49.500;17.736;2023-02-21T06:11:47;7.63;;;3.40;;
3447;SDS011;1738;49.500;17.736;2023-02-21T06:14:15;9.03;;;3.40;;
3447;SDS011;1738;49.500;17.736;2023-02-21T06:16:40;6.47;;;3.70;;
3447;SDS011;1738;49.500;17.736;2023-02-21T06:19:06;10.17;;;3.70;;
3447;SDS011;1738;49.500;17.736;2023-02-21T06:21:32;4.87;;;3.17;;
3447;SDS011;1738;49.500;17.736;2023-02-21T06:23:58;6.30;;;3.53;;
3447;SDS011;1738;49.500;17.736;2023-02-21T06:26:24;9.73;;;4.03;;
3447;SDS011;1738;49.500;17.736;2023-02-21T06:28:49;10.80;;;3.20;;
3447;SDS011;1738;49.500;17.736;2023-02-21T06:31:15;7.80;;;3.40;;
3447;SDS011;1738;49.500;17.736;2023-02-21T06:33:41;4.90;;;3.13;;
3447;SDS011;1738;49.500;17.736;2023-02-21T06:36:09;5.35;;;3.30;;
3447;SDS011;1738;49.500;17.736;2023-02-21T06:38:33;5.90;;;3.07;;
3447;SDS011;1738;49.500;17.736;2023-02-21T06:40:59;11.13;;;3.30;;
3447;SDS011;1738;49.500;17.736;2023-02-21T06:43:25;5.97;;;3.90;;
3447;SDS011;1738;49.500;17.736;2023-02-21T06:45:50;5.70;;;3.53;;
3447;SDS011;1738;49.500;17.736;2023-02-21T06:48:16;7.57;;;3.87;;
3447;SDS011;1738;49.500;17.736;2023-02-21T06:50:42;6.70;;;3.90;;
3447;SDS011;1738;49.500;17.736;2023-02-21T06:53:08;7.00;;;4.13;;
3447;SDS011;1738;49.500;17.736;2023-02-21T06:55:34;7.03;;;3.87;;
3447;SDS011;1738;49.500;17.736;2023-02-21T06:58:00;7.07;;;3.50;;
3447;SDS011;1738;49.500;17.736;2023-02-21T07:00:25;6.30;;;3.30;;
3447;SDS011;1738;49.500;17.736;2023-02-21T07:02:51;6.83;;;3.73;;
3447;SDS011;1738;49.500;17.736;2023-02-21T07:05:17;8.40;;;3.90;;
3447;SDS011;1738;49.500;17.736;2023-02-21T07:07:43;6.97;;;4.40;;
3447;SDS011;1738;49.500;17.736;2023-02-21T07:10:09;9.32;;;4.47;;
3447;SDS011;1738;49.500;17.736;2023-02-21T07:12:35;9.83;;;4.00;;
3447;SDS011;1738;49.500;17.736;2023-02-21T07:15:01;6.90;;;4.17;;
3447;SDS011;1738;49.500;17.736;2023-02-21T07:17:26;8.30;;;3.60;;
3447;SDS011;1738;49.500;17.736;2023-02-21T07:19:52;7.03;;;3.50;;
3447;SDS011;1738;49.500;17.736;2023-02-21T07:22:18;6.13;;;3.60;;
3447;SDS011;1738;49.500;17.736;2023-02-21T07:24:44;9.20;;;3.60;;
3447;SDS011;1738;49.500;17.736;2023-02-21T07:27:10;5.07;;;2.93;;
3447;SDS011;1738;49.500;17.736;2023-02-21T07:29:36;6.17;;;3.10;;
3447;SDS011;1738;49.500;17.736;2023-02-21T07:32:01;5.90;;;3.43;;
3447;SDS011;1738;49.500;17.736;2023-02-21T07:34:27;5.57;;;3.80;;
3447;SDS011;1738;49.500;17.736;2023-02-21T07:36:53;7.40;;;3.30;;
3447;SDS011;1738;49.500;17.736;2023-02-21T07:39:19;5.57;;;3.50;;
3447;SDS011;1738;49.500;17.736;2023-02-21T07:41:45;13.17;;;4.37;;
3447;SDS011;1738;49.500;17.736;2023-02-21T07:44:11;7.03;;;2.97;;
3447;SDS011;1738;49.500;17.736;2023-02-21T07:46:36;6.80;;;3.63;;
3447;SDS011;1738;49.500;17.736;2023-02-21T07:49:02;5.73;;;3.83;;
3447;SDS011;1738;49.500;17.736;2023-02-21T07:51:28;6.30;;;3.30;;
3447;SDS011;1738;49.500;17.736;2023-02-21T07:53:54;8.10;;;3.23;;
3447;SDS011;1738;49.500;17.736;2023-02-21T07:56:20;5.63;;;3.60;;
3447;SDS011;1738;49.500;17.736;2023-02-21T07:58:46;6.37;;;3.60;;
3447;SDS011;1738;49.500;17.736;2023-02-21T08:01:12;4.80;;;3.07;;
3447;SDS011;1738;49.500;17.736;2023-02-21T08:03:37;9.87;;;3.17;;
3447;SDS011;1738;49.500;17.736;2023-02-21T08:06:03;4.83;;;2.43;;
3447;SDS011;1738;49.500;17.736;2023-02-21T08:08:29;6.50;;;3.30;;
3447;SDS011;1738;49.500;17.736;2023-02-21T08:10:55;5.73;;;3.60;;
3447;SDS011;1738;49.500;17.736;2023-02-21T08:13:21;7.33;;;3.13;;
3447;SDS011;1738;49.500;17.736;2023-02-21T08:15:47;6.80;;;3.73;;
3447;SDS011;1738;49.500;17.736;2023-02-21T08:18:14;4.17;;;3.17;;
3447;SDS011;1738;49.500;17.736;2023-02-21T08:20:39;12.20;;;3.93;;
3447;SDS011;1738;49.500;17.736;2023-02-21T08:23:05;7.23;;;3.87;;
3447;SDS011;1738;49.500;17.736;2023-02-21T08:25:31;6.23;;;3.33;;
3447;SDS011;1738;49.500;17.736;2023-02-21T08:27:57;6.00;;;3.67;;
3447;SDS011;1738;49.500;17.736;2023-02-21T08:30:23;4.95;;;2.80;;
3447;SDS011;1738;49.500;17.736;2023-02-21T08:32:48;5.00;;;2.80;;
3447;SDS011;1738;49.500;17.736;2023-02-21T08:35:14;5.27;;;3.30;;
3447;SDS011;1738;49.500;17.736;2023-02-21T08:37:44;5.23;;;3.40;;
3447;SDS011;1738;49.500;17.736;2023-02-21T08:40:09;5.80;;;3.87;;
3447;SDS011;1738;49.500;17.736;2023-02-21T08:42:35;9.10;;;2.97;;
3447;SDS011;1738;49.500;17.736;2023-02-21T08:45:01;5.53;;;3.60;;
3447;SDS011;1738;49.500;17.736;2023-02-21T08:47:26;9.40;;;3.83;;
3447;SDS011;1738;49.500;17.736;2023-02-21T08:49:52;7.07;;;4.32;;
3447;SDS011;1738;49.500;17.736;2023-02-21T08:52:18;9.10;;;4.30;;
3447;SDS011;1738;49.500;17.736;2023-02-21T08:54:44;7.17;;;3.87;;
3447;SDS011;1738;49.500;17.736;2023-02-21T08:57:10;7.80;;;3.90;;
3447;SDS011;1738;49.500;17.736;2023-02-21T08:59:40;5.23;;;3.43;;
3447;SDS011;1738;49.500;17.736;2023-02-21T09:02:06;5.03;;;3.63;;
3447;SDS011;1738;49.500;17.736;2023-02-21T09:04:34;5.90;;;3.17;;
3447;SDS011;1738;49.500;17.736;2023-02-21T09:06:57;4.30;;;3.50;;
3447;SDS011;1738;49.500;17.736;2023-02-21T09:09:23;6.73;;;4.00;;
3447;SDS011;1738;49.500;17.736;2023-02-21T09:11:49;7.20;;;3.83;;
3447;SDS011;1738;49.500;17.736;2023-02-21T09:14:15;8.40;;;4.97;;
3447;SDS011;1738;49.500;17.736;2023-02-21T09:16:41;7.30;;;4.17;;
3447;SDS011;1738;49.500;17.736;2023-02-21T09:19:07;7.93;;;4.00;;
3447;SDS011;1738;49.500;17.736;2023-02-21T09:21:33;6.63;;;4.23;;
3447;SDS011;1738;49.500;17.736;2023-02-21T09:23:58;8.87;;;4.07;;
3447;SDS011;1738;49.500;17.736;2023-02-21T09:26:24;9.90;;;4.80;;
3447;SDS011;1738;49.500;17.736;2023-02-21T09:28:50;6.33;;;4.00;;
3447;SDS011;1738;49.500;17.736;2023-02-21T09:31:16;9.00;;;4.87;;
3447;SDS011;1738;49.500;17.736;2023-02-21T09:33:42;5.40;;;3.93;;
3447;SDS011;1738;49.500;17.736;2023-02-21T09:36:08;6.80;;;3.97;;
3447;SDS011;1738;49.500;17.736;2023-02-21T09:38:34;6.37;;;4.37;;
3447;SDS011;1738;49.500;17.736;2023-02-21T09:41:00;5.80;;;4.00;;
3447;SDS011;1738;49.500;17.736;2023-02-21T09:43:32;6.35;;;3.90;;
3447;SDS011;1738;49.500;17.736;2023-02-21T09:45:57;7.20;;;3.60;;
3447;SDS011;1738;49.500;17.736;2023-02-21T09:48:23;7.40;;;3.77;;
3447;SDS011;1738;49.500;17.736;2023-02-21T09:50:51;5.53;;;3.60;;
3447;SDS011;1738;49.500;17.736;2023-02-21T09:53:32;8.33;;;3.90;;
3447;SDS011;1738;49.500;17.736;2023-02-21T09:55:58;10.53;;;4.00;;
3447;SDS011;1738;49.500;17.736;2023-02-21T09:58:22;6.20;;;3.57;;
3447;SDS011;1738;49.500;17.736;2023-02-21T10:00:48;6.90;;;3.67;;
3447;SDS011;1738;49.500;17.736;2023-02-21T10:03:19;4.83;;;3.37;;
3447;SDS011;1738;49.500;17.736;2023-02-21T10:05:42;7.53;;;3.22;;
3447;SDS011;1738;49.500;17.736;2023-02-21T10:08:13;5.13;;;3.63;;
3447;SDS011;1738;49.500;17.736;2023-02-21T10:10:38;5.27;;;3.50;;
3447;SDS011;1738;49.500;17.736;2023-02-21T10:13:09;7.67;;;3.97;;
3447;SDS011;1738;49.500;17.736;2023-02-21T10:15:40;8.43;;;3.73;;
3447;SDS011;1738;49.500;17.736;2023-02-21T10:20:41;5.33;;;3.20;;
3447;SDS011;1738;49.500;17.736;2023-02-21T10:23:13;5.97;;;3.63;;
3447;SDS011;1738;49.500;17.736;2023-02-21T10:25:38;5.10;;;3.57;;
3447;SDS011;1738;49.500;17.736;2023-02-21T10:28:03;7.40;;;4.47;;
3447;SDS011;1738;49.500;17.736;2023-02-21T10:30:32;6.00;;;3.53;;
3447;SDS011;1738;49.500;17.736;2023-02-21T10:32:55;6.30;;;3.27;;
3447;SDS011;1738;49.500;17.736;2023-02-21T10:35:21;4.43;;;2.42;;
3447;SDS011;1738;49.500;17.736;2023-02-21T10:37:51;4.90;;;2.70;;
3447;SDS011;1738;49.500;17.736;2023-02-21T10:40:24;4.30;;;2.77;;
3447;SDS011;1738;49.500;17.736;2023-02-21T10:42:48;5.87;;;2.70;;
3447;SDS011;1738;49.500;17.736;2023-02-21T10:45:13;3.37;;;2.40;;
3447;SDS011;1738;49.500;17.736;2023-02-21T10:47:49;3.83;;;2.25;;
3447;SDS011;1738;49.500;17.736;2023-02-21T10:50:14;5.43;;;2.50;;
3447;SDS011;1738;49.500;17.736;2023-02-21T10:52:46;4.37;;;3.00;;
3447;SDS011;1738;49.500;17.736;2023-02-21T10:55:15;3.47;;;2.50;;
3447;SDS011;1738;49.500;17.736;2023-02-21T10:57:40;6.47;;;2.80;;
3447;SDS011;1738;49.500;17.736;2023-02-21T11:00:04;5.37;;;2.20;;
3447;SDS011;1738;49.500;17.736;2023-02-21T11:02:35;6.90;;;2.60;;
3447;SDS011;1738;49.500;17.736;2023-02-21T11:07:31;5.27;;;2.97;;
3447;SDS011;1738;49.500;17.736;2023-02-21T11:09:57;3.10;;;1.97;;
3447;SDS011;1738;49.500;17.736;2023-02-21T11:12:24;5.40;;;2.50;;
3447;SDS011;1738;49.500;17.736;2023-02-21T11:17:31;4.67;;;2.37;;
3447;SDS011;1738;49.500;17.736;2023-02-21T11:19:58;3.63;;;2.40;;
3447;SDS011;1738;49.500;17.736;2023-02-21T11:22:35;5.45;;;2.40;;
3447;SDS011;1738;49.500;17.736;2023-02-21T11:24:58;4.17;;;2.83;;
3447;SDS011;1738;49.500;17.736;2023-02-21T11:27:23;4.28;;;2.50;;
3447;SDS011;1738;49.500;17.736;2023-02-21T11:29:49;3.53;;;2.03;;
3447;SDS011;1738;49.500;17.736;2023-02-21T11:32:24;3.33;;;1.60;;
3447;SDS011;1738;49.500;17.736;2023-02-21T11:34:50;3.37;;;2.17;;
3447;SDS011;1738;49.500;17.736;2023-02-21T11:37:16;12.80;;;2.27;;
3447;SDS011;1738;49.500;17.736;2023-02-21T11:39:47;4.30;;;2.07;;
3447;SDS011;1738;49.500;17.736;2023-02-21T11:42:26;3.83;;;2.10;;
3447;SDS011;1738;49.500;17.736;2023-02-21T11:45:01;3.80;;;2.33;;
3447;SDS011;1738;49.500;17.736;2023-02-21T11:47:22;3.80;;;2.40;;
3447;SDS011;1738;49.500;17.736;2023-02-21T11:49:56;4.87;;;2.33;;
3447;SDS011;1738;49.500;17.736;2023-02-21T11:52:21;5.00;;;2.67;;
3447;SDS011;1738;49.500;17.736;2023-02-21T11:54:45;2.83;;;2.03;;
3447;SDS011;1738;49.500;17.736;2023-02-21T11:57:17;3.53;;;2.10;;
3447;SDS011;1738;49.500;17.736;2023-02-21T11:59:57;3.30;;;2.07;;
3447;SDS011;1738;49.500;17.736;2023-02-21T12:10:46;5.53;;;2.30;;
3447;SDS011;1738;49.500;17.736;2023-02-21T12:13:22;3.30;;;2.20;;
3447;SDS011;1738;49.500;17.736;2023-02-21T12:21:09;4.67;;;2.40;;
3447;SDS011;1738;49.500;17.736;2023-02-21T12:23:39;3.40;;;1.87;;
3447;SDS011;1738;49.500;17.736;2023-02-21T12:26:10;3.20;;;2.10;;
3447;SDS011;1738;49.500;17.736;2023-02-21T12:28:37;5.77;;;2.23;;
3447;SDS011;1738;49.500;17.736;2023-02-21T12:31:02;3.50;;;1.93;;
3447;SDS011;1738;49.500;17.736;2023-02-21T12:36:09;7.80;;;2.60;;
3447;SDS011;1738;49.500;17.736;2023-02-21T12:38:36;4.00;;;2.00;;
3447;SDS011;1738;49.500;17.736;2023-02-21T12:43:47;3.90;;;2.40;;
3447;SDS011;1738;49.500;17.736;2023-02-21T12:48:45;5.53;;;2.60;;
3447;SDS011;1738;49.500;17.736;2023-02-21T12:51:15;6.03;;;2.80;;
3447;SDS011;1738;49.500;17.736;2023-02-21T12:53:42;8.00;;;3.70;;
3447;SDS011;1738;49.500;17.736;2023-02-21T12:56:08;3.95;;;2.78;;
3447;SDS011;1738;49.500;17.736;2023-02-21T12:58:37;3.90;;;2.57;;
3447;SDS011;1738;49.500;17.736;2023-02-21T13:01:04;5.77;;;2.67;;
3447;SDS011;1738;49.500;17.736;2023-02-21T13:03:33;4.07;;;2.33;;
3447;SDS011;1738;49.500;17.736;2023-02-21T13:05:57;8.60;;;4.95;;
3447;SDS011;1738;49.500;17.736;2023-02-21T13:08:28;5.62;;;3.20;;
3447;SDS011;1738;49.500;17.736;2023-02-21T13:10:55;4.93;;;2.70;;
3447;SDS011;1738;49.500;17.736;2023-02-21T13:13:23;5.80;;;3.00;;
3447;SDS011;1738;49.500;17.736;2023-02-21T13:15:47;4.73;;;3.10;;
3447;SDS011;1738;49.500;17.736;2023-02-21T13:18:17;5.28;;;2.92;;
3447;SDS011;1738;49.500;17.736;2023-02-21T13:20:44;3.73;;;2.60;;
3447;SDS011;1738;49.500;17.736;2023-02-21T13:25:45;4.43;;;2.80;;
3447;SDS011;1738;49.500;17.736;2023-02-21T13:28:13;6.23;;;3.03;;
3447;SDS011;1738;49.500;17.736;2023-02-21T13:30:37;4.60;;;3.20;;
3447;SDS011;1738;49.500;17.736;2023-02-21T13:33:02;5.60;;;2.97;;
3447;SDS011;1738;49.500;17.736;2023-02-21T13:35:31;4.40;;;3.67;;
3447;SDS011;1738;49.500;17.736;2023-02-21T13:37:56;4.63;;;3.33;;
3447;SDS011;1738;49.500;17.736;2023-02-21T13:40:23;5.90;;;4.07;;
3447;SDS011;1738;49.500;17.736;2023-02-21T13:42:47;5.10;;;3.10;;
3447;SDS011;1738;49.500;17.736;2023-02-21T13:45:14;7.10;;;3.37;;
3447;SDS011;1738;49.500;17.736;2023-02-21T13:50:44;5.60;;;3.60;;
3447;SDS011;1738;49.500;17.736;2023-02-21T13:53:02;4.00;;;3.37;;
3447;SDS011;1738;49.500;17.736;2023-02-21T13:55:20;4.80;;;3.30;;
3447;SDS011;1738;49.500;17.736;2023-02-21T13:57:48;5.53;;;3.63;;
3447;SDS011;1738;49.500;17.736;2023-02-21T14:05:17;5.65;;;3.90;;
3447;SDS011;1738;49.500;17.736;2023-02-21T14:07:44;6.40;;;4.00;;
3447;SDS011;1738;49.500;17.736;2023-02-21T14:10:13;5.10;;;3.70;;
3447;SDS011;1738;49.500;17.736;2023-02-21T14:12:41;6.43;;;4.60;;
3447;SDS011;1738;49.500;17.736;2023-02-21T14:15:04;5.35;;;3.75;;
3447;SDS011;1738;49.500;17.736;2023-02-21T14:17:30;6.00;;;3.43;;
3447;SDS011;1738;49.500;17.736;2023-02-21T14:19:56;5.40;;;3.77;;
3447;SDS011;1738;49.500;17.736;2023-02-21T14:22:25;6.13;;;3.43;;
3447;SDS011;1738;49.500;17.736;2023-02-21T14:24:50;5.73;;;4.00;;
3447;SDS011;1738;49.500;17.736;2023-02-21T14:27:32;4.80;;;3.90;;
3447;SDS011;1738;49.500;17.736;2023-02-21T14:30:20;4.40;;;3.50;;
3447;SDS011;1738;49.500;17.736;2023-02-21T14:32:41;5.73;;;4.23;;
3447;SDS011;1738;49.500;17.736;2023-02-21T14:35:19;7.43;;;3.60;;
3447;SDS011;1738;49.500;17.736;2023-02-21T14:37:39;6.37;;;4.37;;
3447;SDS011;1738;49.500;17.736;2023-02-21T14:40:25;5.77;;;4.27;;
3447;SDS011;1738;49.500;17.736;2023-02-21T14:42:56;5.60;;;4.40;;
3447;SDS011;1738;49.500;17.736;2023-02-21T14:45:23;5.63;;;3.63;;
3447;SDS011;1738;49.500;17.736;2023-02-21T14:48:00;5.90;;;4.30;;
3447;SDS011;1738;49.500;17.736;2023-02-21T14:50:30;6.90;;;4.50;;
3447;SDS011;1738;49.500;17.736;2023-02-21T15:01:04;10.60;;;4.80;;
3447;SDS011;1738;49.500;17.736;2023-02-21T15:03:13;7.00;;;5.17;;
3447;SDS011;1738;49.500;17.736;2023-02-21T15:05:52;9.63;;;5.33;;
3447;SDS011;1738;49.500;17.736;2023-02-21T15:08:18;8.53;;;5.60;;
3447;SDS011;1738;49.500;17.736;2023-02-21T15:10:42;9.03;;;6.17;;
3447;SDS011;1738;49.500;17.736;2023-02-21T15:15:40;8.30;;;4.83;;
3447;SDS011;1738;49.500;17.736;2023-02-21T15:18:06;7.03;;;4.70;;
3447;SDS011;1738;49.500;17.736;2023-02-21T15:20:32;11.13;;;6.20;;
3447;SDS011;1738;49.500;17.736;2023-02-21T15:23:08;7.80;;;6.00;;
3447;SDS011;1738;49.500;17.736;2023-02-21T15:25:27;8.40;;;5.83;;
3447;SDS011;1738;49.500;17.736;2023-02-21T15:27:54;6.90;;;6.20;;
3447;SDS011;1738;49.500;17.736;2023-02-21T15:30:21;11.77;;;6.40;;
3447;SDS011;1738;49.500;17.736;2023-02-21T15:32:53;7.27;;;5.63;;
3447;SDS011;1738;49.500;17.736;2023-02-21T15:35:17;8.17;;;5.97;;
3447;SDS011;1738;49.500;17.736;2023-02-21T15:37:42;7.73;;;6.00;;
3447;SDS011;1738;49.500;17.736;2023-02-21T15:40:13;9.60;;;5.73;;
3447;SDS011;1738;49.500;17.736;2023-02-21T15:42:38;8.60;;;5.80;;
3447;SDS011;1738;49.500;17.736;2023-02-21T15:45:05;7.27;;;5.63;;
3447;SDS011;1738;49.500;17.736;2023-02-21T15:47:31;7.17;;;5.50;;
3447;SDS011;1738;49.500;17.736;2023-02-21T15:49:59;14.53;;;12.97;;
3447;SDS011;1738;49.500;17.736;2023-02-21T15:52:25;6.63;;;5.20;;
3447;SDS011;1738;49.500;17.736;2023-02-21T15:54:50;6.80;;;5.57;;
3447;SDS011;1738;49.500;17.736;2023-02-21T15:57:19;10.70;;;5.70;;
3447;SDS011;1738;49.500;17.736;2023-02-21T15:59:41;5.90;;;5.30;;
3447;SDS011;1738;49.500;17.736;2023-02-21T16:02:13;9.37;;;4.20;;
3447;SDS011;1738;49.500;17.736;2023-02-21T16:04:40;9.40;;;6.87;;
3447;SDS011;1738;49.500;17.736;2023-02-21T16:07:05;8.20;;;7.00;;